Time;durP1;ratioP1;P1;durP2;ratioP2;P2;SDS_P1;SDS_P2;PMS_P1;PMS_P2;Temp;Humidity;BMP_temperature;BMP_pressure;BME280_temperature;BME280_humidity;BME280_pressure;Samples;Min_cycle;Max_cycle;Signal;HPM_P1;HPM_P2
2022/08/26 00:01:41;;;;;;;13.82;10.45;;;;;;;22.35;57.89;100202.59;5033143;28;20460;-73
2022/08/26 00:04:11;;;;;;;22.67;11.57;;;;;;;22.43;57.50;100218.66;5032591;28;20059;-74
2022/08/26 00:06:39;;;;;;;25.17;11.85;;;;;;;22.32;57.74;100221.22;5032628;28;20046;-73
2022/08/26 00:09:12;;;;;;;17.15;10.02;;;;;;;22.18;57.83;100215.19;5031589;28;20065;-74
2022/08/26 00:11:42;;;;;;;15.02;10.80;;;;;;;22.32;58.31;100238.28;5032527;28;20564;-73
2022/08/26 00:14:09;;;;;;;11.65;10.40;;;;;;;22.25;58.02;100229.56;5032380;28;20049;-73
2022/08/26 00:16:36;;;;;;;15.43;10.43;;;;;;;22.30;58.28;100246.38;5032912;28;20045;-73
2022/08/26 00:19:07;;;;;;;26.40;11.30;;;;;;;22.30;58.36;100252.06;5031928;28;20540;-74
2022/08/26 00:21:34;;;;;;;19.08;10.50;;;;;;;22.10;58.27;100216.16;5032496;28;20107;-73
2022/08/26 00:24:03;;;;;;;17.52;10.63;;;;;;;22.23;58.09;100243.34;5033515;28;20060;-73
2022/08/26 00:26:32;;;;;;;20.58;10.40;;;;;;;22.23;58.59;100246.19;5036061;28;20486;-74
2022/08/26 00:28:59;;;;;;;20.70;10.35;;;;;;;21.86;58.08;100198.09;5036069;28;20112;-73
2022/08/26 00:31:26;;;;;;;20.17;10.27;;;;;;;21.97;58.52;100226.78;5036152;28;20103;-73
2022/08/26 00:33:57;;;;;;;23.73;14.02;;;;;;;21.76;58.27;100212.84;5036537;28;20132;-72
2022/08/26 00:36:25;;;;;;;24.08;11.45;;;;;;;21.46;58.92;100159.25;5036098;28;20128;-72
2022/08/26 00:38:56;;;;;;;16.30;10.13;;;;;;;22.08;58.67;100250.63;5036330;28;20072;-73
2022/08/26 00:41:23;;;;;;;23.40;10.85;;;;;;;21.89;58.81;100220.09;5036135;28;20130;-73
2022/08/26 00:43:51;;;;;;;15.43;10.27;;;;;;;22.06;58.68;100246.53;5036007;28;20053;-73
2022/08/26 00:46:24;;;;;;;14.13;10.05;;;;;;;22.06;58.33;100238.00;5035650;28;20041;-73
2022/08/26 00:49:04;;;;;;;16.80;10.65;;;;;;;21.77;58.92;100194.59;5035987;28;20099;-73
2022/08/26 00:51:48;;;;;;;17.05;11.02;;;;;;;21.97;58.61;100209.75;5036254;28;20129;-73
2022/08/26 00:54:18;;;;;;;15.43;10.68;;;;;;;21.88;58.50;100190.03;5035380;28;20107;-73
2022/08/26 00:56:53;;;;;;;20.02;15.43;;;;;;;21.96;58.83;100225.97;5035728;28;20556;-73
2022/08/26 00:59:22;;;;;;;20.90;11.20;;;;;;;21.86;59.12;100208.63;5035498;28;20054;-74
2022/08/26 01:01:49;;;;;;;21.92;11.25;;;;;;;21.81;58.93;100206.88;5035522;28;20095;-73
2022/08/26 01:04:20;;;;;;;23.70;12.15;;;;;;;21.89;59.49;100197.34;5035857;28;20072;-73
2022/08/26 01:06:49;;;;;;;12.55;9.63;;;;;;;21.90;59.09;100201.84;5035765;28;20088;-73
2022/08/26 01:09:18;;;;;;;20.42;11.85;;;;;;;21.90;59.02;100199.00;5049169;28;20052;-74
2022/08/26 01:11:47;;;;;;;24.60;10.48;;;;;;;21.79;59.28;100174.34;5055524;28;20449;-73
2022/08/26 01:14:16;;;;;;;14.75;10.27;;;;;;;21.77;58.95;100177.53;5055160;28;20631;-73
2022/08/26 01:16:46;;;;;;;13.48;10.85;;;;;;;21.81;59.15;100184.13;5055173;28;20048;-72
2022/08/26 01:19:44;;;;;;;18.20;10.45;;;;;;;21.80;59.26;100196.69;5055211;28;20048;-73
2022/08/26 01:22:18;;;;;;;18.40;9.93;;;;;;;21.80;59.35;100198.72;5055315;28;20447;-73
2022/08/26 01:24:47;;;;;;;21.17;11.15;;;;;;;21.68;59.36;100188.28;5054640;28;20106;-74
2022/08/26 01:27:18;;;;;;;18.88;10.98;;;;;;;21.73;59.38;100193.66;5055169;28;20453;-73
2022/08/26 01:29:47;;;;;;;14.45;9.75;;;;;;;21.76;59.50;100198.63;5054771;28;20053;-73
2022/08/26 01:32:19;;;;;;;24.23;10.93;;;;;;;21.77;59.28;100201.09;5055151;28;20049;-73
2022/08/26 01:34:47;;;;;;;17.20;11.25;;;;;;;21.76;59.74;100204.31;5054511;28;20049;-73
2022/08/26 01:37:19;;;;;;;20.75;10.60;;;;;;;21.80;59.69;100193.84;5054440;28;20045;-73
2022/08/26 01:39:50;;;;;;;14.63;10.65;;;;;;;21.80;59.25;100182.50;5055097;28;20144;-73
2022/08/26 01:42:19;;;;;;;16.05;10.73;;;;;;;21.25;59.26;100085.63;5054176;28;20053;-73
2022/08/26 01:45:12;;;;;;;18.00;10.18;;;;;;;21.85;59.28;100178.56;5054836;28;20115;-74
2022/08/26 01:47:41;;;;;;;15.85;9.98;;;;;;;21.84;59.34;100169.19;5054882;28;20410;-74
2022/08/26 01:50:13;;;;;;;14.73;10.13;;;;;;;21.73;59.25;100159.56;5054509;28;20091;-74
2022/08/26 01:52:55;;;;;;;20.75;10.35;;;;;;;21.60;59.43;100155.16;5054832;28;20053;-74
2022/08/26 01:55:23;;;;;;;18.83;9.93;;;;;;;21.12;59.84;100091.72;5037089;28;20068;-74
2022/08/26 01:58:03;;;;;;;19.15;9.60;;;;;;;21.20;59.86;100100.09;5034446;28;20365;-73
2022/08/26 02:00:32;;;;;;;18.35;10.25;;;;;;;21.84;60.09;100186.25;5035108;28;20080;-73
2022/08/26 02:03:17;;;;;;;10.48;9.32;;;;;;;21.74;59.62;100169.72;5034314;28;20046;-74
2022/08/26 02:05:45;;;;;;;20.38;10.48;;;;;;;21.81;60.01;100189.81;5034223;28;20081;-73
2022/08/26 02:08:16;;;;;;;18.02;10.10;;;;;;;21.81;60.06;100178.44;5034170;28;20053;-73
2022/08/26 02:10:51;;;;;;;10.77;9.23;;;;;;;21.75;60.06;100175.06;5034141;28;20046;-73
2022/08/26 02:13:20;;;;;;;25.15;11.70;;;;;;;21.71;59.96;100170.50;5034537;28;20085;-73
2022/08/26 02:15:48;;;;;;;19.92;11.02;;;;;;;21.65;60.13;100164.25;5033536;28;20045;-73
2022/08/26 02:18:15;;;;;;;14.93;10.00;;;;;;;21.51;59.80;100153.31;5034035;28;20060;-73
2022/08/26 02:20:43;;;;;;;20.70;10.82;;;;;;;21.61;59.88;100156.81;5049613;28;20433;-73
2022/08/26 02:23:09;;;;;;;18.98;11.15;;;;;;;21.58;59.94;100147.00;5034001;28;20556;-73
2022/08/26 02:25:48;;;;;;;15.23;9.93;;;;;;;21.57;60.17;100159.53;5034268;28;20076;-73
2022/08/26 02:28:16;;;;;;;21.25;10.48;;;;;;;21.44;60.32;100141.75;5033724;28;20061;-72
2022/08/26 02:30:46;;;;;;;16.30;10.82;;;;;;;21.45;60.55;100149.09;5034376;28;20125;-74
2022/08/26 02:33:13;;;;;;;14.73;9.90;;;;;;;21.56;60.06;100176.97;5034489;28;20432;-74
2022/08/26 02:35:40;;;;;;;15.57;10.68;;;;;;;21.32;60.25;100152.31;5034034;28;20453;-73
2022/08/26 02:38:09;;;;;;;17.25;10.15;;;;;;;21.09;60.27;100103.81;5033662;28;20053;-74
2022/08/26 02:40:39;;;;;;;21.13;10.75;;;;;;;21.40;60.18;100152.22;5033579;28;20108;-73
2022/08/26 02:43:07;;;;;;;15.07;10.50;;;;;;;21.38;60.20;100148.91;5048796;28;20054;-74
2022/08/26 02:45:35;;;;;;;16.40;10.38;;;;;;;21.36;60.45;100151.25;5033750;28;20434;-74
2022/08/26 02:48:08;;;;;;;15.05;10.98;;;;;;;21.38;60.30;100163.09;5033226;28;20057;-73
2022/08/26 02:50:36;;;;;;;19.77;10.13;;;;;;;21.39;60.29;100167.56;5034013;28;20049;-73
2022/08/26 02:53:05;;;;;;;16.80;10.37;;;;;;;21.35;60.68;100165.84;5033545;28;20053;-73
2022/08/26 02:55:33;;;;;;;17.73;11.02;;;;;;;21.32;60.78;100158.00;5033429;28;20253;-73
2022/08/26 02:58:00;;;;;;;17.17;10.25;;;;;;;20.70;60.49;100072.28;5033557;28;20073;-74
2022/08/26 03:00:30;;;;;;;20.02;10.00;;;;;;;21.33;60.84;100166.16;5031888;28;20065;-74
2022/08/26 03:02:58;;;;;;;21.70;12.85;;;;;;;21.33;60.71;100165.31;5032977;28;20045;-72
2022/08/26 03:05:25;;;;;;;22.52;11.63;;;;;;;21.27;60.66;100159.94;5033002;28;20084;-74
2022/08/26 03:07:52;;;;;;;21.23;11.32;;;;;;;21.07;61.07;100129.72;5033937;28;20107;-73
2022/08/26 03:10:20;;;;;;;12.25;10.85;;;;;;;20.94;60.74;100111.91;5033095;28;20045;-73
2022/08/26 03:12:47;;;;;;;16.50;9.90;;;;;;;21.21;60.95;100141.50;5033303;28;20077;-73
2022/08/26 03:15:17;;;;;;;14.80;9.57;;;;;;;21.26;60.78;100140.38;5033098;28;20107;-73
2022/08/26 03:17:46;;;;;;;15.80;9.38;;;;;;;21.26;61.06;100152.59;5032836;28;20088;-74
2022/08/26 03:20:14;;;;;;;12.85;9.63;;;;;;;20.93;61.15;100112.28;5030535;28;20054;-73
2022/08/26 03:22:43;;;;;;;17.35;9.13;;;;;;;21.13;61.07;100153.00;5032308;28;20054;-73
2022/08/26 03:25:13;;;;;;;13.88;9.48;;;;;;;21.08;61.28;100144.75;5032217;28;20168;-73
2022/08/26 03:27:41;;;;;;;14.80;9.60;;;;;;;21.09;61.42;100150.06;5032929;28;20084;-73
2022/08/26 03:32:55;;;;;;;13.80;9.32;;;;;;;21.10;61.35;100156.59;5033039;28;20095;-74
2022/08/26 03:35:24;;;;;;;15.93;9.80;;;;;;;20.55;61.38;100077.56;5032976;28;20049;-73
2022/08/26 03:37:52;;;;;;;17.27;9.07;;;;;;;20.95;61.71;100143.97;5032695;28;20053;-72
2022/08/26 03:40:19;;;;;;;23.20;9.70;;;;;;;20.95;61.43;100147.63;5033144;28;20111;-72
2022/08/26 03:42:48;;;;;;;13.15;9.00;;;;;;;20.99;61.41;100148.59;5033318;28;20095;-73
2022/08/26 03:45:16;;;;;;;14.27;9.70;;;;;;;20.76;61.48;100110.59;5032668;28;20544;-73
2022/08/26 03:47:44;;;;;;;23.27;10.80;;;;;;;21.04;61.57;100156.00;5032695;28;20049;-74
2022/08/26 03:50:15;;;;;;;21.98;9.30;;;;;;;21.02;61.50;100141.34;5032591;28;20144;-73
2022/08/26 03:52:49;;;;;;;16.85;9.73;;;;;;;21.00;61.38;100149.41;5032786;28;20092;-72
2022/08/26 03:55:17;;;;;;;19.80;9.40;;;;;;;20.71;61.57;100108.00;5032640;28;20537;-73
2022/08/26 03:57:49;;;;;;;14.15;9.90;;;;;;;20.89;61.55;100146.25;5033487;28;20046;-73
2022/08/26 04:00:17;;;;;;;19.90;10.15;;;;;;;21.00;61.69;100153.06;5035924;28;20103;-72
2022/08/26 04:02:47;;;;;;;16.58;9.35;;;;;;;21.01;61.73;100156.72;5036810;28;20049;-74
2022/08/26 04:05:16;;;;;;;19.70;9.70;;;;;;;20.66;61.94;100111.09;5037003;28;20149;-73
2022/08/26 04:07:45;;;;;;;16.55;9.05;;;;;;;20.66;61.93;100111.91;5036796;28;20049;-73
2022/08/26 04:10:16;;;;;;;13.63;9.18;;;;;;;20.89;61.98;100162.44;5036525;28;20581;-73
2022/08/26 04:12:46;;;;;;;19.52;9.77;;;;;;;20.87;61.96;100165.66;5036428;28;20052;-72
2022/08/26 04:15:15;;;;;;;22.08;9.77;;;;;;;20.87;62.01;100156.31;5036929;28;20058;-72
2022/08/26 04:17:43;;;;;;;18.08;10.15;;;;;;;20.70;61.81;100141.22;5036829;28;20057;-73
2022/08/26 04:20:16;;;;;;;17.13;9.48;;;;;;;20.67;62.17;100119.22;5036593;28;20464;-73
2022/08/26 04:22:44;;;;;;;20.77;10.40;;;;;;;20.82;62.04;100144.03;5036313;28;20057;-74
2022/08/26 04:25:11;;;;;;;15.45;9.90;;;;;;;20.80;62.26;100151.25;5036441;28;20049;-73
2022/08/26 04:27:38;;;;;;;17.05;8.75;;;;;;;20.73;62.28;100137.66;5036105;28;20081;-74
2022/08/26 04:30:07;;;;;;;21.23;10.07;;;;;;;20.81;62.17;100135.84;5035815;28;20057;-73
2022/08/26 04:32:36;;;;;;;22.35;10.45;;;;;;;20.77;62.34;100138.59;5036943;28;20497;-73
2022/08/26 04:35:04;;;;;;;24.38;11.00;;;;;;;20.68;62.39;100131.41;5036262;28;20059;-73
2022/08/26 04:37:32;;;;;;;12.18;9.75;;;;;;;20.45;62.39;100102.72;5035768;28;20049;-73
2022/08/26 04:39:59;;;;;;;26.70;10.65;;;;;;;20.46;62.29;100096.69;5036113;28;20073;-73
2022/08/26 04:42:26;;;;;;;28.67;10.57;;;;;;;20.60;62.54;100124.69;5035709;28;20049;-74
2022/08/26 04:44:54;;;;;;;18.02;10.60;;;;;;;20.61;62.54;100129.16;5035850;28;20049;-73
2022/08/26 04:47:20;;;;;;;14.93;9.02;;;;;;;20.48;62.28;100105.69;5036001;28;20139;-74
2022/08/26 04:49:47;;;;;;;20.45;10.50;;;;;;;20.71;62.16;100144.88;5036857;28;20049;-74
2022/08/26 04:52:15;;;;;;;13.50;10.90;;;;;;;20.73;62.31;100153.88;5035770;28;20053;-73
2022/08/26 04:54:42;;;;;;;13.93;10.15;;;;;;;20.55;62.55;100114.44;5035704;28;20095;-73
2022/08/26 04:57:09;;;;;;;19.55;9.52;;;;;;;20.55;62.51;100125.78;5035511;28;20080;-72
2022/08/26 04:59:36;;;;;;;21.67;9.52;;;;;;;20.64;62.55;100134.13;5035603;28;20058;-72
2022/08/26 05:02:05;;;;;;;19.13;9.80;;;;;;;20.59;62.49;100123.06;5035697;28;20084;-73
2022/08/26 05:04:33;;;;;;;16.30;10.23;;;;;;;20.40;62.38;100098.13;5035497;28;20555;-73
2022/08/26 05:07:01;;;;;;;17.70;9.35;;;;;;;20.71;62.64;100142.84;5036173;28;20045;-72
2022/08/26 05:09:28;;;;;;;15.95;9.45;;;;;;;20.64;62.69;100136.16;5035623;28;20061;-74
2022/08/26 05:11:56;;;;;;;19.92;10.52;;;;;;;20.65;62.54;100149.13;5035597;28;20488;-73
2022/08/26 05:14:23;;;;;;;13.95;9.75;;;;;;;20.25;62.88;100090.38;5035733;28;20049;-73
2022/08/26 05:16:50;;;;;;;17.60;10.18;;;;;;;20.57;62.94;100143.25;5036472;28;20095;-72
2022/08/26 05:19:18;;;;;;;12.18;9.13;;;;;;;20.41;62.84;100108.28;5035112;28;20045;-73
2022/08/26 05:21:47;;;;;;;12.38;9.55;;;;;;;20.04;62.82;100053.66;5035356;28;20057;-72
2022/08/26 05:24:15;;;;;;;13.80;11.02;;;;;;;20.61;63.00;100139.69;5042450;28;20064;-73
2022/08/26 05:26:43;;;;;;;21.45;9.32;;;;;;;20.41;62.90;100111.13;5035290;28;20133;-73
2022/08/26 05:29:11;;;;;;;17.48;9.45;;;;;;;20.47;62.92;100125.88;5034834;28;20110;-73
2022/08/26 05:31:39;;;;;;;13.05;9.88;;;;;;;20.49;62.72;100135.69;5035392;28;20148;-73
2022/08/26 05:34:06;;;;;;;22.52;11.00;;;;;;;20.45;62.90;100122.59;5033895;28;20083;-73
2022/08/26 05:36:35;;;;;;;17.52;10.10;;;;;;;20.53;62.90;100133.00;5035126;28;20107;-73
2022/08/26 05:39:05;;;;;;;12.38;9.90;;;;;;;20.50;63.04;100120.34;5035274;28;20059;-73
2022/08/26 05:41:36;;;;;;;16.38;10.40;;;;;;;20.48;62.95;100119.03;5034228;28;20089;-73
2022/08/26 05:44:09;;;;;;;14.98;9.68;;;;;;;20.54;62.95;100137.47;5034919;28;20053;-73
2022/08/26 05:46:38;;;;;;;16.67;9.57;;;;;;;20.40;63.04;100126.47;5034659;28;20077;-72
2022/08/26 05:49:07;;;;;;;19.85;10.88;;;;;;;20.48;63.17;100131.19;5034796;28;20053;-74
2022/08/26 05:51:40;;;;;;;12.82;10.00;;;;;;;20.44;63.30;100121.72;5034672;28;20053;-74
2022/08/26 05:54:07;;;;;;;13.07;10.00;;;;;;;20.34;63.39;100103.22;5034614;28;20053;-74
2022/08/26 05:56:37;;;;;;;15.05;10.57;;;;;;;20.40;63.30;100109.47;5034994;28;20095;-73
2022/08/26 05:59:04;;;;;;;16.70;13.02;;;;;;;20.53;63.25;100130.97;5034380;28;20049;-74
2022/08/26 06:01:40;;;;;;;18.13;12.38;;;;;;;20.57;63.18;100128.25;5034318;28;20045;-73
2022/08/26 06:04:08;;;;;;;19.50;13.57;;;;;;;20.38;63.33;100111.84;5034647;28;20549;-73
2022/08/26 06:06:36;;;;;;;24.13;12.80;;;;;;;20.31;63.37;100088.94;5034496;28;20187;-73
2022/08/26 06:09:05;;;;;;;14.35;12.82;;;;;;;20.39;63.39;100104.16;5033122;28;20046;-73
2022/08/26 06:11:36;;;;;;;18.90;13.77;;;;;;;20.46;63.57;100125.06;5034624;28;20049;-73
2022/08/26 06:14:05;;;;;;;20.52;13.43;;;;;;;20.52;63.56;100117.16;5037867;28;20084;-73
2022/08/26 06:16:37;;;;;;;19.10;13.38;;;;;;;20.48;63.57;100108.50;5053943;28;20084;-72
2022/08/26 06:19:09;;;;;;;15.93;13.00;;;;;;;20.61;63.38;100125.50;5069137;28;20102;-72
2022/08/26 06:21:40;;;;;;;17.50;13.90;;;;;;;20.66;63.15;100123.25;5053722;28;20053;-73
2022/08/26 06:27:03;;;;;;;22.83;14.17;;;;;;;20.67;63.04;100119.22;5034145;28;20143;-74
2022/08/26 06:29:32;;;;;;;18.25;13.57;;;;;;;20.50;63.30;100086.31;5033456;28;20340;-73
2022/08/26 06:32:00;;;;;;;18.27;14.23;;;;;;;20.59;62.91;100089.00;5045335;28;20187;-73
2022/08/26 06:34:27;;;;;;;16.05;13.18;;;;;;;20.94;63.10;100122.44;5053613;28;20053;-73
2022/08/26 06:36:58;;;;;;;23.00;14.63;;;;;;;20.79;63.07;100098.53;5028308;28;20046;-73
2022/08/26 06:39:27;;;;;;;18.63;13.50;;;;;;;20.93;63.02;100126.50;5014044;28;20086;-74
2022/08/26 06:41:57;;;;;;;21.63;17.38;;;;;;;21.02;63.25;100135.66;5013849;28;20053;-73
2022/08/26 06:44:25;;;;;;;22.20;19.30;;;;;;;21.24;63.17;100142.78;5014184;28;20053;-74
2022/08/26 06:46:53;;;;;;;24.23;18.20;;;;;;;21.12;62.83;100111.59;5013668;28;20061;-73
2022/08/26 06:49:20;;;;;;;24.73;16.05;;;;;;;21.44;62.88;100136.09;5044570;28;20128;-73
2022/08/26 06:51:53;;;;;;;25.25;15.32;;;;;;;21.34;62.34;100101.69;5033860;28;20068;-73
2022/08/26 06:54:20;;;;;;;19.80;16.20;;;;;;;21.70;62.23;100129.84;5033888;28;20572;-74
2022/08/26 06:56:47;;;;;;;20.30;14.40;;;;;;;21.85;62.17;100131.06;5033716;28;20041;-74
2022/08/26 06:59:15;;;;;;;24.35;14.20;;;;;;;22.16;61.85;100153.00;5034080;28;20081;-74
2022/08/26 07:01:45;;;;;;;20.33;14.30;;;;;;;22.22;61.47;100120.25;5035015;28;20056;-74
2022/08/26 07:04:16;;;;;;;18.60;14.68;;;;;;;22.30;61.06;100109.03;5036316;28;20079;-74
2022/08/26 07:06:49;;;;;;;17.52;14.70;;;;;;;22.47;61.37;100131.38;5054810;28;20049;-74
2022/08/26 07:09:25;;;;;;;21.55;13.48;;;;;;;22.64;60.39;100130.94;5055450;28;20127;-74
2022/08/26 07:11:55;;;;;;;26.60;13.48;;;;;;;22.85;60.63;100136.28;5053068;28;20139;-73
2022/08/26 07:14:23;;;;;;;18.75;13.40;;;;;;;23.00;59.89;100130.91;5053377;28;20048;-74
2022/08/26 07:16:52;;;;;;;17.77;14.43;;;;;;;23.01;59.63;100109.75;5053943;28;20136;-74
2022/08/26 07:19:21;;;;;;;23.30;15.70;;;;;;;23.41;59.51;100134.97;5069418;28;20052;-73
2022/08/26 07:22:02;;;;;;;20.95;14.93;;;;;;;23.70;58.92;100147.78;5050308;28;20041;-74
2022/08/26 07:24:32;;;;;;;18.10;11.77;;;;;;;23.77;58.51;100127.97;5032271;28;20099;-74
2022/08/26 07:27:02;;;;;;;14.90;12.27;;;;;;;24.16;58.28;100147.75;5032948;28;20057;-73
2022/08/26 07:29:32;;;;;;;15.13;12.18;;;;;;;24.42;58.05;100140.44;5032666;28;20053;-74
2022/08/26 07:32:00;;;;;;;17.90;11.70;;;;;;;24.72;57.08;100129.88;5032905;28;20049;-75
2022/08/26 07:34:27;;;;;;;23.23;12.48;;;;;;;25.01;56.53;100136.78;5032067;28;20060;-75
2022/08/26 07:36:55;;;;;;;16.02;13.43;;;;;;;25.24;56.23;100133.81;5032798;28;20572;-74
2022/08/26 07:39:25;;;;;;;34.90;18.10;;;;;;;25.55;55.99;100140.28;5033694;28;20124;-73
2022/08/26 07:41:52;;;;;;;16.30;12.93;;;;;;;25.70;55.32;100132.66;5033092;28;20053;-74
2022/08/26 07:44:20;;;;;;;17.92;14.77;;;;;;;25.96;54.61;100126.81;5032615;28;20564;-74
2022/08/26 07:46:47;;;;;;;16.10;12.77;;;;;;;26.04;54.07;100090.50;5032389;28;20506;-74
2022/08/26 07:49:21;;;;;;;14.98;11.23;;;;;;;26.55;53.58;100138.31;5032710;28;20049;-74
2022/08/26 07:51:49;;;;;;;19.45;10.43;;;;;;;26.61;53.31;100119.53;5032590;28;20513;-75
2022/08/26 07:54:16;;;;;;;22.88;16.33;;;;;;;26.85;52.50;100134.41;5032437;28;20088;-75
2022/08/26 07:56:45;;;;;;;18.52;11.35;;;;;;;27.13;52.67;100146.00;5033043;28;20042;-74
2022/08/26 07:59:12;;;;;;;16.42;10.98;;;;;;;27.10;51.63;100100.94;5032549;28;20045;-74
2022/08/26 08:01:41;;;;;;;19.73;12.88;;;;;;;27.45;51.63;100136.69;5032821;28;20425;-75
2022/08/26 08:04:16;;;;;;;15.13;11.15;;;;;;;27.59;51.38;100147.38;5032858;28;20057;-75
2022/08/26 08:06:44;;;;;;;14.50;12.02;;;;;;;27.91;50.88;100141.72;5032390;28;20136;-74
2022/08/26 08:09:13;;;;;;;13.77;11.38;;;;;;;28.27;49.74;100144.56;5032311;28;20498;-75
2022/08/26 08:11:43;;;;;;;13.13;10.88;;;;;;;28.58;49.39;100154.41;5032365;28;20053;-75
2022/08/26 08:14:11;;;;;;;17.75;14.70;;;;;;;28.52;49.21;100110.13;5033183;28;20057;-74
2022/08/26 08:16:38;;;;;;;17.90;14.55;;;;;;;28.85;48.30;100120.28;5032403;28;20136;-74
2022/08/26 08:19:13;;;;;;;17.65;10.50;;;;;;;29.27;47.49;100144.38;5031429;28;20076;-74
2022/08/26 08:21:41;;;;;;;12.63;10.73;;;;;;;29.44;47.16;100154.16;5032133;28;20555;-74
2022/08/26 08:24:09;;;;;;;16.20;12.25;;;;;;;29.63;46.76;100150.75;5032237;28;20076;-74
2022/08/26 08:26:36;;;;;;;12.45;10.85;;;;;;;29.76;46.74;100139.59;5031067;28;20045;-74
2022/08/26 08:29:04;;;;;;;15.88;11.10;;;;;;;29.95;45.93;100141.91;5032195;28;20453;-75
2022/08/26 08:31:32;;;;;;;15.88;13.07;;;;;;;30.10;45.71;100125.34;5032715;28;20053;-75
2022/08/26 08:34:19;;;;;;;18.25;13.88;;;;;;;30.53;45.27;100148.03;5032439;28;20049;-74
2022/08/26 08:36:51;;;;;;;15.35;12.48;;;;;;;30.42;44.46;100104.88;5032062;28;20132;-74
2022/08/26 08:39:19;;;;;;;19.30;11.07;;;;;;;30.76;44.48;100130.06;5032530;28;20072;-75
2022/08/26 08:42:16;;;;;;;11.23;9.25;;;;;;;30.89;43.87;100095.75;5047330;28;20053;-74
2022/08/26 08:44:45;;;;;;;24.88;15.27;;;;;;;31.32;43.26;100133.53;5032852;28;20457;-75
2022/08/26 08:47:36;;;;;;;14.63;11.40;;;;;;;31.28;43.32;100103.91;5050220;28;20081;-75
2022/08/26 08:50:22;;;;;;;16.92;13.45;;;;;;;31.72;42.82;100138.72;5034530;28;20085;-74
2022/08/26 08:53:06;;;;;;;11.85;10.50;;;;;;;31.23;42.42;100049.56;5035732;28;20055;-75
2022/08/26 08:56:12;;;;;;;12.85;11.25;;;;;;;31.96;42.52;100136.72;5034956;28;20124;-74
2022/08/26 08:59:04;;;;;;;14.30;12.98;;;;;;;32.21;41.66;100133.44;5035683;28;20057;-74
2022/08/26 09:01:40;;;;;;;19.05;11.18;;;;;;;32.34;41.52;100134.41;5035987;28;20045;-74
2022/08/26 09:04:16;;;;;;;17.77;11.50;;;;;;;32.30;41.50;100140.25;5039667;28;20068;-75
2022/08/26 09:06:51;;;;;;;19.27;10.93;;;;;;;32.26;41.30;100139.50;5054515;28;20398;-75
2022/08/26 09:09:40;;;;;;;20.25;10.38;;;;;;;31.97;41.57;100136.31;5055550;28;20420;-74
2022/08/26 09:12:19;;;;;;;15.27;11.15;;;;;;;31.86;41.56;100126.94;5055266;28;20142;-74
2022/08/26 09:15:19;;;;;;;22.02;11.70;;;;;;;31.55;41.39;100111.75;5039938;28;20053;-74
2022/08/26 09:17:51;;;;;;;19.35;10.68;;;;;;;31.76;41.38;100140.31;5035210;28;20552;-74
2022/08/26 09:20:24;;;;;;;15.43;11.70;;;;;;;31.80;40.84;100146.84;5034984;28;20049;-73
2022/08/26 09:22:51;;;;;;;20.10;11.45;;;;;;;31.97;40.56;100147.06;5035863;28;20457;-74
2022/08/26 09:25:18;;;;;;;19.52;11.65;;;;;;;32.00;40.42;100149.88;5035338;28;20114;-74
2022/08/26 09:27:47;;;;;;;13.50;10.80;;;;;;;32.00;40.22;100146.16;5050483;28;20107;-74
2022/08/26 09:30:25;;;;;;;17.17;11.32;;;;;;;31.94;40.62;100139.25;5034685;28;20510;-74
2022/08/26 09:33:09;;;;;;;21.15;12.07;;;;;;;31.78;40.60;100126.25;5049852;28;20095;-74
2022/08/26 09:35:45;;;;;;;17.42;11.32;;;;;;;31.95;40.23;100130.13;5034728;28;20053;-74
2022/08/26 09:38:26;;;;;;;19.05;11.75;;;;;;;32.06;39.87;100136.53;5035522;28;20053;-74
2022/08/26 09:40:59;;;;;;;17.27;11.25;;;;;;;32.06;39.81;100135.72;5034010;28;20053;-73
2022/08/26 09:43:27;;;;;;;21.95;11.95;;;;;;;32.02;39.72;100134.97;5034714;28;20107;-73
2022/08/26 09:46:14;;;;;;;18.40;11.48;;;;;;;32.17;39.41;100130.63;5034572;28;20099;-74
2022/08/26 09:48:42;;;;;;;20.63;12.45;;;;;;;32.21;39.29;100127.66;5048923;28;20046;-74
2022/08/26 09:51:34;;;;;;;13.52;10.82;;;;;;;32.52;39.45;100139.94;5034892;28;20049;-74
2022/08/26 09:54:03;;;;;;;15.38;11.40;;;;;;;32.93;38.16;100124.25;5033256;28;20053;-75
2022/08/26 09:56:36;;;;;;;15.27;10.60;;;;;;;33.41;37.90;100122.84;5033994;28;20498;-73
2022/08/26 09:59:09;;;;;;;14.48;10.85;;;;;;;33.57;37.55;100122.88;5034565;28;20052;-74
2022/08/26 10:01:43;;;;;;;15.60;11.80;;;;;;;33.81;37.42;100152.50;5034667;28;20053;-75
2022/08/26 10:04:18;;;;;;;16.67;11.00;;;;;;;33.90;36.94;100115.06;5034323;28;20108;-74
2022/08/26 10:06:59;;;;;;;12.98;10.73;;;;;;;34.24;36.87;100134.09;5033219;28;20053;-74
2022/08/26 10:09:32;;;;;;;14.73;13.15;;;;;;;34.05;36.75;100082.84;5034304;28;20583;-74
2022/08/26 10:12:05;;;;;;;17.00;12.88;;;;;;;34.44;36.33;100113.72;5035211;28;20085;-74
2022/08/26 10:14:40;;;;;;;21.00;11.10;;;;;;;34.39;35.98;100079.47;5034597;28;20077;-74
2022/08/26 10:17:14;;;;;;;12.52;10.48;;;;;;;34.79;35.86;100134.31;5034440;28;20403;-74
2022/08/26 10:19:51;;;;;;;14.38;11.15;;;;;;;34.80;35.56;100118.53;5034371;28;20057;-74
2022/08/26 10:22:43;;;;;;;19.40;10.43;;;;;;;34.20;36.20;100076.25;5034024;28;20099;-75
2022/08/26 10:25:19;;;;;;;16.48;11.20;;;;;;;34.53;36.11;100102.31;5034010;28;20085;-74
2022/08/26 10:28:07;;;;;;;14.10;11.18;;;;;;;34.83;35.56;100129.22;5034066;28;20115;-74
2022/08/26 10:30:55;;;;;;;17.60;12.00;;;;;;;34.85;35.33;100118.78;5033410;28;20053;-74
2022/08/26 10:33:22;;;;;;;18.83;13.30;;;;;;;34.37;35.03;100076.22;5049198;28;20053;-75
2022/08/26 10:35:57;;;;;;;18.87;11.57;;;;;;;34.38;35.07;100077.84;5033897;28;20045;-75
2022/08/26 10:38:50;;;;;;;16.98;11.55;;;;;;;34.59;35.47;100108.34;5034157;28;20041;-75
2022/08/26 10:41:23;;;;;;;13.75;10.38;;;;;;;34.37;35.42;100091.53;5032721;28;20067;-75
2022/08/26 10:44:03;;;;;;;12.23;10.32;;;;;;;34.18;35.37;100040.28;5033822;28;20484;-75
2022/08/26 10:46:46;;;;;;;18.27;11.50;;;;;;;34.95;35.18;100107.34;5033904;28;20429;-74
2022/08/26 10:49:16;;;;;;;24.88;13.30;;;;;;;35.08;34.27;100099.53;5033712;28;20068;-74
2022/08/26 10:52:10;;;;;;;13.75;10.90;;;;;;;35.13;34.33;100107.66;5033409;28;20053;-74
2022/08/26 10:55:01;;;;;;;13.35;11.98;;;;;;;34.58;35.08;100098.03;5028748;28;20414;-76
2022/08/26 10:57:43;;;;;;;18.42;11.13;;;;;;;34.87;35.15;100115.41;5006915;28;20077;-74
2022/08/26 11:03:36;;;;;;;16.60;13.80;;;;;;;35.34;34.49;100091.66;5025364;28;20053;-74
2022/08/26 11:06:18;;;;;;;15.40;10.20;;;;;;;35.58;34.21;100100.88;5033106;28;20084;-75
2022/08/26 11:08:56;;;;;;;17.23;15.50;;;;;;;35.78;33.91;100089.03;5033062;28;20073;-75
2022/08/26 11:11:40;;;;;;;12.18;10.90;;;;;;;35.89;33.72;100086.56;5048156;28;20045;-76
2022/08/26 11:14:29;;;;;;;14.32;10.45;;;;;;;35.97;33.77;100085.06;5032978;28;20055;-75
2022/08/26 11:17:10;;;;;;;14.18;12.60;;;;;;;35.61;33.54;100091.25;5033377;28;20488;-74
2022/08/26 11:19:40;;;;;;;12.38;11.13;;;;;;;35.07;33.28;100031.94;5033509;28;20086;-76
2022/08/26 11:22:27;;;;;;;11.70;10.52;;;;;;;35.55;33.90;100091.00;5053081;28;20476;-75
2022/08/26 11:24:54;;;;;;;13.05;11.35;;;;;;;35.70;33.36;100097.19;5052852;28;20494;-75
2022/08/26 11:27:27;;;;;;;12.82;11.55;;;;;;;35.78;33.64;100080.31;5051716;28;20053;-76
2022/08/26 11:30:08;;;;;;;11.98;10.77;;;;;;;35.93;32.90;100075.63;5053009;28;20088;-74
2022/08/26 11:32:38;;;;;;;16.08;12.57;;;;;;;35.80;32.76;100071.97;5052903;28;20053;-74
2022/08/26 11:35:25;;;;;;;11.55;10.48;;;;;;;35.64;33.63;100064.19;5052813;28;20087;-74
2022/08/26 11:38:00;;;;;;;20.08;11.10;;;;;;;35.92;32.97;100068.22;5051676;28;20569;-75
2022/08/26 11:40:33;;;;;;;16.02;10.23;;;;;;;35.69;32.41;100022.09;5053007;28;20440;-75
2022/08/26 11:43:05;;;;;;;12.95;11.68;;;;;;;35.67;32.31;100079.88;5052910;28;20045;-75